Santa Fe Municipal Airport
KSAF : now visible

Airfield :











YOU CAN JOIN US ON...

 
LOGIN :

Register | Disclaimer

   EN    FR    IT 

 









Legend :    VFR   Marginal VFR   IFR   Intensive IFR   Very Intensive IFR
Visi :
Ceiling :
>= 8 km
>= 3000ft
5 to 8 km
1000 to 3000 ft
1500m to 5 km
500 to 1000 ft
800 to 1500m
200 to 500 ft
< 800m
< 200 ft
Symbols :   Thunderstorms  Fog  Heavy snow  Heavy precipitations  Wind > 20 kt






- Airport Elevation : 6348 ft


KSAF - Santa Fe Municipal

CURRENT METAR :
  • 052153Z 00000KT 10SM CLR 11/M05 A3038 RMK AO2 SLP256 T01111050

EXPIRED METARs :
  • 052053Z 01005KT 10SM CLR 09/M03 A3038 RMK AO2 SLP261 T00941033 58016
  • 051953Z 02007KT 10SM CLR 08/M03 A3040 RMK AO2 SLP269 T00781028
  • 051853Z 01012KT 10SM CLR 07/M03 A3042 RMK AO2 SLP278 T00721033
  • 051753Z 36013KT 10SM CLR 06/M04 A3044 RMK AO2 SLP286 T00561039 10061 21017 50007

TAF KSAF
Valid from the 05 at 18:00 until the 06 at 18:00 UTC


051725Z 0518/0618 36010KT P6SM SKC
FM052100 29005KT P6SM SKC
FM060300 02007KT P6SM FEW250
FM061000 36015KT P6SM SKC
KZAB FIR / North America



MET'MAP, your aeronautical weather chart ! - Copyright ORBIFLY December 2007 - Disclaimer

ORBIFLY MET'MAP TEAM :

Programming & Development : Alexandra Zaïnal
Original concept : Baudouin d'Aumeries
Technical & hardware support : Manuel Goepfert
Assistance : Marc-Olivier Méhu




SOURCES & CREDITS :

   NOAA       Earth
Advisory